NCAR-RAP Real-Time Weather Data

Output produced by METARs form (20 February 2019  18:11 UTC)
found at http://weather.rap.ucar.edu/surface/
 
Conditions at: KTPA observed 20 February 2019  17:53 UTC
Temperature: 29.4°C (85°F)
Dewpoint: 19.4°C (67°F) [RH = 55%]
Pressure (altimeter): 30.07 inches Hg (1018.4 mb)
[Sea-level pressure: 1018.1 mb]
Winds: from the S (180 degrees) at 14 MPH (12 knots; 6.2 m/s)
gusting to 22 MPH (19 knots; 9.9 m/s)
Visibility: 10 or more miles (16+ km)
Ceiling: 4500 feet AGL
Clouds: scattered clouds at 3500 feet AGL
broken clouds at 4500 feet AGL
broken clouds at 6000 feet AGL
Present Weather: no significant weather observed at this time
KTPA 201753Z 18012G19KT 10SM SCT035 BKN045 BKN060 29/19 A3007 RMK AO2 SLP181 T02940194 10294 20228 58016

Conditions at: KTPA observed 20 February 2019  16:53 UTC
Temperature: 27.8°C (82°F)
Dewpoint: 20.0°C (68°F) [RH = 63%]
Pressure (altimeter): 30.10 inches Hg (1019.4 mb)
[Sea-level pressure: 1019.2 mb]
Winds: from the S (180 degrees) at 15 MPH (13 knots; 6.8 m/s)
Visibility: 10 or more miles (16+ km)
Ceiling: at least 12,000 feet AGL
Clouds: scattered clouds at 3200 feet AGL
Present Weather: no significant weather observed at this time
KTPA 201653Z 18013KT 10SM SCT032 28/20 A3010 RMK AO2 SLP192 SCT V BKN T02780200

Conditions at: KTPA observed 20 February 2019  16:01 UTC
Temperature: 27.2°C (81°F)
Dewpoint: 20.6°C (69°F) [RH = 67%]
Pressure (altimeter): 30.11 inches Hg (1019.7 mb)
Winds: from the SSE (150 degrees) at 14 MPH (12 knots; 6.2 m/s)
gusting to 20 MPH (17 knots; 8.8 m/s)
Visibility: 10 or more miles (16+ km)
Ceiling: at least 12,000 feet AGL
Clouds: scattered clouds at 2200 feet AGL
scattered clouds at 2900 feet AGL
Present Weather: no significant weather observed at this time
KTPA 201601Z 15012G17KT 10SM SCT022 SCT029 27/21 A3011 RMK AO2 T02720206

Conditions at: KTPA observed 20 February 2019  15:53 UTC
Temperature: 27.2°C (81°F)
Dewpoint: 20.6°C (69°F) [RH = 67%]
Pressure (altimeter): 30.11 inches Hg (1019.7 mb)
[Sea-level pressure: 1019.6 mb]
Winds: from the SSE (150 degrees) at 14 MPH (12 knots; 6.2 m/s)
gusting to 24 MPH (21 knots; 10.9 m/s)
Visibility: 10 or more miles (16+ km)
Ceiling: 2000 feet AGL
Clouds: broken clouds at 2000 feet AGL
Present Weather: no significant weather observed at this time
KTPA 201553Z 15012G21KT 10SM BKN020 27/21 A3011 RMK AO2 SLP196 T02720206

Conditions at: KTPA observed 20 February 2019  14:53 UTC
Temperature: 25.6°C (78°F)
Dewpoint: 21.1°C (70°F) [RH = 76%]
Pressure (altimeter): 30.12 inches Hg (1020.1 mb)
[Sea-level pressure: 1019.8 mb]
Winds: from the SSE (150 degrees) at 12 MPH (10 knots; 5.2 m/s)
gusting to 20 MPH (17 knots; 8.8 m/s)
Visibility: 10 or more miles (16+ km)
Ceiling: 1800 feet AGL
Clouds: broken clouds at 1800 feet AGL
Present Weather: no significant weather observed at this time
KTPA 201453Z 15010G17KT 10SM BKN018 26/21 A3012 RMK AO2 SLP198 T02560211 52009

Conditions at: KTPA observed 20 February 2019  13:53 UTC
Temperature: 23.9°C (75°F)
Dewpoint: 20.6°C (69°F) [RH = 82%]
Pressure (altimeter): 30.11 inches Hg (1019.7 mb)
[Sea-level pressure: 1019.6 mb]
Winds: from the SE (140 degrees) at 15 MPH (13 knots; 6.8 m/s)
gusting to 26 MPH (23 knots; 12.0 m/s)
Visibility: 10 or more miles (16+ km)
Ceiling: at least 12,000 feet AGL
Clouds: few clouds at 1300 feet AGL
scattered clouds at 7500 feet AGL
Present Weather: no significant weather observed at this time
KTPA 201353Z 14013G23KT 10SM FEW013 SCT075 24/21 A3011 RMK AO2 SLP196 T02390206

Conditions at: KTPA observed 20 February 2019  12:53 UTC
Temperature: 22.8°C (73°F)
Dewpoint: 20.6°C (69°F) [RH = 87%]
Pressure (altimeter): 30.10 inches Hg (1019.4 mb)
[Sea-level pressure: 1019.1 mb]
Winds: variable direction winds at 7 MPH (6 knots; 3.1 m/s)
Visibility: 10 or more miles (16+ km)
Ceiling: 8000 feet AGL
Clouds: broken clouds at 8000 feet AGL
Present Weather: no significant weather observed at this time
KTPA 201253Z VRB06KT 10SM BKN080 23/21 A3010 RMK AO2 SLP191 T02280206

Conditions at: KTPA observed 20 February 2019  11:53 UTC
Temperature: 22.8°C (73°F)
Dewpoint: 20.0°C (68°F) [RH = 84%]
Pressure (altimeter): 30.09 inches Hg (1019.0 mb)
[Sea-level pressure: 1018.9 mb]
Winds: from the SE (130 degrees) at 8 MPH (7 knots; 3.6 m/s)
Visibility: 10 or more miles (16+ km)
Ceiling: 8000 feet AGL
Clouds: few clouds at 500 feet AGL
broken clouds at 8000 feet AGL
Present Weather: no significant weather observed at this time
KTPA 201153Z 13007KT 10SM FEW005 BKN080 23/20 A3009 RMK AO2 SLP189 T02280200 10228 20217 53003

Conditions at: KTPA observed 20 February 2019  11:40 UTC
Temperature: 22.8°C (73°F)
Dewpoint: 20.0°C (68°F) [RH = 84%]
Pressure (altimeter): 30.09 inches Hg (1019.0 mb)
Winds: from the SE (130 degrees) at 8 MPH (7 knots; 3.6 m/s)
Visibility: 10 or more miles (16+ km)
Ceiling: 7500 feet AGL
Clouds: few clouds at 400 feet AGL
overcast cloud deck at 7500 feet AGL
Present Weather: no significant weather observed at this time
KTPA 201140Z 13007KT 10SM FEW004 OVC075 23/20 A3009 RMK AO2 T02280200

Conditions at: KTPA observed 20 February 2019  10:53 UTC
Temperature: 22.2°C (72°F)
Dewpoint: 20.0°C (68°F) [RH = 87%]
Pressure (altimeter): 30.08 inches Hg (1018.7 mb)
[Sea-level pressure: 1018.6 mb]
Winds: from the SE (140 degrees) at 9 MPH (8 knots; 4.2 m/s)
gusting to 17 MPH (15 knots; 7.8 m/s)
Visibility: 10 or more miles (16+ km)
Ceiling: 8000 feet AGL
Clouds: few clouds at 1300 feet AGL
broken clouds at 8000 feet AGL
Present Weather: no significant weather observed at this time
KTPA 201053Z 14008G15KT 10SM FEW013 BKN080 22/20 A3008 RMK AO2 SLP186 T02220200

Conditions at: KTPA observed 20 February 2019  09:53 UTC
Temperature: 22.2°C (72°F)
Dewpoint: 19.4°C (67°F) [RH = 84%]
Pressure (altimeter): 30.07 inches Hg (1018.4 mb)
[Sea-level pressure: 1018.3 mb]
Winds: from the ESE (120 degrees) at 7 MPH (6 knots; 3.1 m/s)
Visibility: 10 or more miles (16+ km)
Ceiling: at least 12,000 feet AGL
Clouds: scattered clouds at 7500 feet AGL
Present Weather: no significant weather observed at this time
KTPA 200953Z 12006KT 10SM SCT075 22/19 A3007 RMK AO2 SLP183 T02220194

Conditions at: KTPA observed 20 February 2019  08:53 UTC
Temperature: 21.7°C (71°F)
Dewpoint: 19.4°C (67°F) [RH = 87%]
Pressure (altimeter): 30.08 inches Hg (1018.7 mb)
[Sea-level pressure: 1018.6 mb]
Winds: from the ESE (120 degrees) at 7 MPH (6 knots; 3.1 m/s)
Visibility: 10 or more miles (16+ km)
Ceiling: at least 12,000 feet AGL
Clouds: sky clear below 12,000 feet AGL
Present Weather: no significant weather observed at this time
KTPA 200853Z 12006KT 10SM CLR 22/19 A3008 RMK AO2 SLP186 T02170194 58014

Conditions at: KTPA observed 20 February 2019  07:53 UTC
Temperature: 21.7°C (71°F)
Dewpoint: 19.4°C (67°F) [RH = 87%]
Pressure (altimeter): 30.10 inches Hg (1019.4 mb)
[Sea-level pressure: 1019.1 mb]
Winds: from the E (100 degrees) at 6 MPH (5 knots; 2.6 m/s)
Visibility: 10 or more miles (16+ km)
Ceiling: at least 12,000 feet AGL
Clouds: sky clear below 12,000 feet AGL
Present Weather: no significant weather observed at this time
KTPA 200753Z 10005KT 10SM CLR 22/19 A3010 RMK AO2 SLP191 T02170194

Conditions at: KTPA observed 20 February 2019  06:53 UTC
Temperature: 22.8°C (73°F)
Dewpoint: 18.9°C (66°F) [RH = 79%]
Pressure (altimeter): 30.11 inches Hg (1019.7 mb)
[Sea-level pressure: 1019.6 mb]
Winds: from the ESE (110 degrees) at 8 MPH (7 knots; 3.6 m/s)
Visibility: 10 or more miles (16+ km)
Ceiling: at least 12,000 feet AGL
Clouds: sky clear below 12,000 feet AGL
Present Weather: no significant weather observed at this time
KTPA 200653Z 11007KT 080V140 10SM CLR 23/19 A3011 RMK AO2 SLP196 T02280189

Conditions at: KTPA observed 20 February 2019  05:53 UTC
Temperature: 22.8°C (73°F)
Dewpoint: 18.3°C (65°F) [RH = 76%]
Pressure (altimeter): 30.12 inches Hg (1020.1 mb)
[Sea-level pressure: 1019.9 mb]
Winds: from the ESE (120 degrees) at 8 MPH (7 knots; 3.6 m/s)
Visibility: 10 or more miles (16+ km)
Ceiling: at least 12,000 feet AGL
Clouds: sky clear below 12,000 feet AGL
Present Weather: no significant weather observed at this time
KTPA 200553Z 12007KT 10SM CLR 23/18 A3012 RMK AO2 SLP199 T02280183 10261 20228 58010

Conditions at: KTPA observed 20 February 2019  04:53 UTC
Temperature: 23.3°C (74°F)
Dewpoint: 17.8°C (64°F) [RH = 71%]
Pressure (altimeter): 30.14 inches Hg (1020.7 mb)
[Sea-level pressure: 1020.5 mb]
Winds: from the ESE (110 degrees) at 6 MPH (5 knots; 2.6 m/s)
Visibility: 10 or more miles (16+ km)
Ceiling: at least 12,000 feet AGL
Clouds: sky clear below 12,000 feet AGL
Present Weather: no significant weather observed at this time
KTPA 200453Z 11005KT 10SM CLR 23/18 A3014 RMK AO2 SLP205 T02330178 402940189

Conditions at: KTPA observed 20 February 2019  03:53 UTC
Temperature: 24.4°C (76°F)
Dewpoint: 18.3°C (65°F) [RH = 69%]
Pressure (altimeter): 30.15 inches Hg (1021.1 mb)
[Sea-level pressure: 1020.8 mb]
Winds: from the SE (140 degrees) at 6 MPH (5 knots; 2.6 m/s)
Visibility: 10 or more miles (16+ km)
Ceiling: at least 12,000 feet AGL
Clouds: sky clear below 12,000 feet AGL
Present Weather: no significant weather observed at this time
KTPA 200353Z 14005KT 10SM CLR 24/18 A3015 RMK AO2 SLP208 T02440183

Conditions at: KTPA observed 20 February 2019  02:53 UTC
Temperature: 25.0°C (77°F)
Dewpoint: 18.3°C (65°F) [RH = 66%]
Pressure (altimeter): 30.15 inches Hg (1021.1 mb)
[Sea-level pressure: 1020.9 mb]
Winds: from the SE (140 degrees) at 3 MPH (3 knots; 1.6 m/s)
Visibility: 10 or more miles (16+ km)
Ceiling: at least 12,000 feet AGL
Clouds: few clouds at 9000 feet AGL
scattered clouds at 15000 feet AGL
Present Weather: no significant weather observed at this time
KTPA 200253Z 14003KT 10SM FEW090 SCT150 25/18 A3015 RMK AO2 SLP209 T02500183 51018

Conditions at: KTPA observed 20 February 2019  01:53 UTC
Temperature: 25.0°C (77°F)
Dewpoint: 18.9°C (66°F) [RH = 69%]
Pressure (altimeter): 30.14 inches Hg (1020.7 mb)
[Sea-level pressure: 1020.6 mb]
Winds: calm
Visibility: 10 or more miles (16+ km)
Ceiling: at least 12,000 feet AGL
Clouds: few clouds at 5000 feet AGL
scattered clouds at 8000 feet AGL
Present Weather: no significant weather observed at this time
KTPA 200153Z 00000KT 10SM FEW050 SCT080 25/19 A3014 RMK AO2 SLP206 T02500189

Conditions at: KTPA observed 20 February 2019  00:53 UTC
Temperature: 25.0°C (77°F)
Dewpoint: 19.4°C (67°F) [RH = 71%]
Pressure (altimeter): 30.12 inches Hg (1020.1 mb)
[Sea-level pressure: 1019.9 mb]
Winds: from the WSW (250 degrees) at 7 MPH (6 knots; 3.1 m/s)
Visibility: 10 or more miles (16+ km)
Ceiling: 8000 feet AGL
Clouds: scattered clouds at 5000 feet AGL
broken clouds at 8000 feet AGL
Present Weather: no significant weather observed at this time
KTPA 200053Z 25006KT 10SM SCT050 BKN080 25/19 A3012 RMK AO2 SLP199 T02500194

Conditions at: KTPA observed 19 February 2019  23:53 UTC
Temperature: 26.7°C (80°F)
Dewpoint: 18.9°C (66°F) [RH = 62%]
Pressure (altimeter): 30.10 inches Hg (1019.4 mb)
[Sea-level pressure: 1019.1 mb]
Winds: from the SSW (200 degrees) at 3 MPH (3 knots; 1.6 m/s)
Visibility: 10 or more miles (16+ km)
Ceiling: at least 12,000 feet AGL
Clouds: few clouds at 5000 feet AGL
scattered clouds at 8000 feet AGL
Present Weather: no significant weather observed at this time
KTPA 192353Z 20003KT 10SM FEW050 SCT080 27/19 A3010 RMK AO2 SLP191 T02670189 10294 20267 55001

Conditions at: KTPA observed 19 February 2019  22:53 UTC
Temperature: 27.8°C (82°F)
Dewpoint: 18.3°C (65°F) [RH = 56%]
Pressure (altimeter): 30.09 inches Hg (1019.0 mb)
[Sea-level pressure: 1018.8 mb]
Winds: calm
Visibility: 10 or more miles (16+ km)
Ceiling: at least 12,000 feet AGL
Clouds: scattered clouds at 5000 feet AGL
Present Weather: no significant weather observed at this time
KTPA 192253Z 00000KT 10SM SCT050 28/18 A3009 RMK AO2 SLP188 T02780183

Conditions at: KTPA observed 19 February 2019  21:53 UTC
Temperature: 28.3°C (83°F)
Dewpoint: 18.9°C (66°F) [RH = 57%]
Pressure (altimeter): 30.09 inches Hg (1019.0 mb)
[Sea-level pressure: 1018.9 mb]
Winds: from the SW (220 degrees) at 3 MPH (3 knots; 1.6 m/s)
Visibility: 10 or more miles (16+ km)
Ceiling: 6500 feet AGL
Clouds: broken clouds at 6500 feet AGL
Present Weather:
SOME DATA ABOVE MAY BE INACCURATE!!!
"$" is an indication the sensor requires maintenance
KTPA 192153Z 22003KT 10SM BKN065 28/19 A3009 RMK AO2 SLP189 T02830189 $

Conditions at: KTPA observed 19 February 2019  20:53 UTC
Temperature: 27.8°C (82°F)
Dewpoint: 20.0°C (68°F) [RH = 63%]
Pressure (altimeter): 30.10 inches Hg (1019.4 mb)
[Sea-level pressure: 1019.2 mb]
Winds: from the SW (230 degrees) at 5 MPH (4 knots; 2.1 m/s)
Visibility: 10 or more miles (16+ km)
Ceiling: at least 12,000 feet AGL
Clouds: scattered clouds at 6500 feet AGL
Present Weather:
SOME DATA ABOVE MAY BE INACCURATE!!!
"$" is an indication the sensor requires maintenance
KTPA 192053Z 23004KT 10SM SCT065 28/20 A3010 RMK AO2 SLP192 T02780200 56030 $

Conditions at: KTPA observed 19 February 2019  19:53 UTC
Temperature: 28.3°C (83°F)
Dewpoint: 20.6°C (69°F) [RH = 63%]
Pressure (altimeter): 30.12 inches Hg (1020.1 mb)
[Sea-level pressure: 1019.9 mb]
Winds: from the SW (230 degrees) at 7 MPH (6 knots; 3.1 m/s)
Visibility: 10 or more miles (16+ km)
Ceiling: at least 12,000 feet AGL
Clouds: scattered clouds at 6500 feet AGL
Present Weather:
SOME DATA ABOVE MAY BE INACCURATE!!!
"$" is an indication the sensor requires maintenance
KTPA 191953Z 23006KT 10SM SCT065 28/21 A3012 RMK AO2 SLP199 T02830206 $

Conditions at: KTPA observed 19 February 2019  18:53 UTC
Temperature: 28.9°C (84°F)
Dewpoint: 20.6°C (69°F) [RH = 61%]
Pressure (altimeter): 30.15 inches Hg (1021.1 mb)
[Sea-level pressure: 1020.9 mb]
Winds: from the SE (130 degrees) at 8 MPH (7 knots; 3.6 m/s)
Visibility: 10 or more miles (16+ km)
Ceiling: at least 12,000 feet AGL
Clouds: scattered clouds at 3800 feet AGL
Present Weather:
SOME DATA ABOVE MAY BE INACCURATE!!!
"$" is an indication the sensor requires maintenance
KTPA 191853Z 13007KT 110V180 10SM SCT038 29/21 A3015 RMK AO2 SLP209 T02890206 $